Eliporto S.G.Rotondo

IT-0573 · Apulia, Włochy

Historia METAR IT-0573 · Eliporto S.G.Rotondo

Poniżej widzisz METAR-y z ostatnich kilku dni. Wybierz rok, aby przeglądać starsze METAR-y, począwszy od roku 2007.

18 lipca 2024

Czas Kod Pogoda Temp. Widoczność Sufit Wiatr METAR/SPECI
08:55
V
32 °C 10 km+ - 280° 280° 10 kt METAR LIBA 180655Z 28010KT CAVOK 32/22 Q1015
07:55
V
28 °C 10 km+ - 280° 280° 9 kt METAR LIBA 180555Z 28009KT CAVOK 28/19 Q1015
06:55
V
25 °C 10 km+ - 270° 270° 7 kt METAR LIBA 180455Z 27007KT CAVOK 25/17 Q1015
05:55
V
25 °C 10 km+ - 260° 260° 4 kt METAR LIBA 180355Z 26004KT CAVOK 25/20 Q1014
04:55
V
25 °C 10 km+ - 290° 290° 7 kt METAR LIBA 180255Z 29007KT CAVOK 25/19 Q1014
03:55
V
24 °C 10 km+ - 290° 290° 6 kt METAR LIBA 180155Z 29006KT CAVOK 24/18 Q1014
02:55
V
26 °C 10 km+ - 270° 270° 7 kt METAR LIBA 180055Z 27007KT CAVOK 26/18 Q1014
01:55
V
26 °C 10 km+ - 250° 250° 6 kt METAR LIBA 172355Z 25006KT CAVOK 26/18 Q1014
00:55
V
26 °C 10 km+ - 300° 300° 5 kt METAR LIBA 172255Z 30005KT CAVOK 26/20 Q1014

17 lipca 2024

Czas Kod Pogoda Temp. Widoczność Sufit Wiatr METAR/SPECI
23:55
V
28 °C 10 km+ - 250° 250° 5 kt METAR LIBA 172155Z 25005KT CAVOK 28/20 Q1014
22:55
V
29 °C 10 km+ - 300° 300° 1 kt METAR LIBA 172055Z 30001KT CAVOK 29/19 Q1014
21:55
V
31 °C 10 km+ - 230° 230° 4 kt METAR LIBA 171955Z 23004KT CAVOK 31/15 Q1014 RMK SKC VIS MIN 9999 WIND THR11 24004KT WIND THR29/////KT BLU
20:55
V
32 °C 10 km+ - 180° 180° 5 kt METAR LIBA 171855Z 18005KT 9999 FEW050 32/16 Q1014
19:55
V
34 °C 10 km+ - 150° 150° 5 kt METAR LIBA 171755Z 15005KT 9999 FEW050 34/18 Q1013
18:55
V
36 °C 10 km+ - 090° 090° 7 kt METAR LIBA 171655Z 09007KT 9999 FEW050 36/18 Q1012
17:55
V
37 °C 10 km+ - 090° 090° 12 kt METAR LIBA 171555Z 09012KT 9999 FEW050 37/17 Q1012
16:55
V
38 °C 10 km+ - 110° 110° 11 kt METAR LIBA 171455Z 11011KT 9999 FEW050 38/16 Q1012
15:55
V
39 °C 10 km+ - 100° 100° 10 kt METAR LIBA 171355Z 10010KT 9999 FEW050 39/16 Q1012
14:55
V
38 °C 10 km+ - 080° 080° 13 kt METAR LIBA 171255Z 08013KT 9999 FEW050 38/17 Q1012
13:55
V
39 °C 10 km+ - 260° 260° 6 kt METAR LIBA 171155Z 26006KT 9999 PO FEW050 39/15 Q1013 RMK FEW VIS MIN 9999 WIND THR11 29009KT WIND THR29 /////KT BLU
12:55
V
39 °C 10 km+ - 270° 270° 10 kt METAR LIBA 171055Z 27010KT 9999 FEW040 39/15 Q1013
11:55
V
38 °C 10 km+ - 270° 270° 8 kt METAR LIBA 170955Z 27008KT 9999 FEW050 38/15 Q1013
10:55
V
37 °C 10 km+ - 280° 280° 7 kt METAR LIBA 170855Z 28007KT CAVOK 37/15 Q1013
09:55
V
35 °C 10 km+ - 310° 310° 7 kt METAR LIBA 170755Z 31007KT CAVOK 35/17 Q1013
08:55
V
33 °C 10 km+ - 300° 300° 10 kt METAR LIBA 170655Z 30010KT CAVOK 33/18 Q1013
07:55
V
29 °C 10 km+ - 280° 280° 8 kt METAR LIBA 170555Z 28008KT CAVOK 29/19 Q1013
06:55
V
25 °C 10 km+ - 290° 290° 4 kt METAR LIBA 170455Z 29004KT CAVOK 25/16 Q1013
05:55
V
24 °C 10 km+ - 270° 270° 7 kt METAR LIBA 170355Z 27007KT CAVOK 24/15 Q1012
04:55
V
25 °C 10 km+ - 270° 270° 5 kt METAR LIBA 170255Z 27005KT CAVOK 25/15 Q1012
03:55
V
24 °C 10 km+ - 280° 280° 5 kt METAR LIBA 170155Z 28005KT CAVOK 24/16 Q1012
02:55
V
25 °C 10 km+ - 280° 280° 6 kt METAR LIBA 170055Z 28006KT CAVOK 25/15 Q1012
01:55
V
26 °C 10 km+ - 270° 270° 5 kt METAR LIBA 162355Z 27005KT CAVOK 26/17 Q1012
00:55
V
28 °C 10 km+ - Var Var 2 kt METAR LIBA 162255Z VRB02KT CAVOK 28/17 Q1012

16 lipca 2024

Czas Kod Pogoda Temp. Widoczność Sufit Wiatr METAR/SPECI
23:55
V
28 °C 10 km+ - Var Var 2 kt METAR LIBA 162155Z VRB02KT CAVOK 28/18 Q1012 RMK SKC VIS MIN 9999 WIND THR11 VRB02KT WIND THR29 /////KT BLU
22:55
V
29 °C 10 km+ - Var Var 2 kt METAR LIBA 162055Z VRB02KT CAVOK 29/18 Q1012
21:55
V
30 °C 10 km+ - 020° 020° 3 kt METAR LIBA 161955Z 02003KT CAVOK 30/18 Q1012
20:55
V
31 °C 10 km+ - 140° 140° 4 kt METAR LIBA 161855Z 14004KT CAVOK 31/17 Q1011
19:55
V
32 °C 10 km+ - 150° 150° 7 kt METAR LIBA 161755Z 15007KT CAVOK 32/18 Q1011
18:55
V
34 °C 10 km+ - 110° 110° 10 kt METAR LIBA 161655Z 11010KT CAVOK 34/18 Q1010
17:55
V
36 °C 10 km+ - 100° 100° 11 kt METAR LIBA 161555Z 10011KT 9999 FEW040 36/19 Q1010
16:55
V
36 °C 10 km+ - 090° 090° 14 kt METAR LIBA 161455Z 09014KT 9999 FEW040 36/17 Q1010
15:55
V
36 °C 10 km+ - 080° 080° 14 kt METAR LIBA 161355Z 08014KT 9999 FEW040 36/17 Q1011
14:55
V
37 °C 10 km+ - 080° 080° 14 kt METAR LIBA 161255Z 08014KT 9999 FEW040 37/16 Q1011
13:55
V
38 °C 10 km+ - 090° 090° 14 kt METAR LIBA 161155Z 09014KT 9999 FEW040 38/16 Q1011
12:55
V
38 °C 10 km+ - 210° 210° 6 kt METAR LIBA 161055Z 21006KT 9999 FEW040 38/14 Q1011
11:55
V
37 °C 10 km+ - Var Var 2 kt METAR LIBA 160955Z VRB02KT 9999 FEW040 37/15 Q1011
10:55
V
36 °C 10 km+ - 260° 260° 3 kt METAR LIBA 160855Z 26003KT 9999 FEW040 36/17 Q1011 RMK FEW VIS MIN 9999 WIND THR11 34003KT WIND THR29/////KT BLU
09:55
V
33 °C 10 km+ - Var Var 2 kt METAR LIBA 160755Z VRB02KT CAVOK 33/17 Q1012
08:55
V
31 °C 10 km+ - 270° 270° 4 kt METAR LIBA 160655Z 27004KT CAVOK 31/18 Q1012
07:55
V
28 °C 10 km+ - 280° 280° 5 kt METAR LIBA 160555Z 28005KT CAVOK 28/18 Q1012
Zgłoś zmianę